Time;durP1;ratioP1;P1;durP2;ratioP2;P2;SDS_P1;SDS_P2;PMS_P1;PMS_P2;Temp;Humidity;BMP_temperature;BMP_pressure;BME280_temperature;BME280_humidity;BME280_pressure;Samples;Min_cycle;Max_cycle;Signal;HPM_P1;HPM_P2
2023/03/08 00:00:59;;;;;;;;;;;;;;;9.10;51.79;93809.31;4216125;28;19924;-57
2023/03/08 00:03:01;;;;;;;;;;;;;;;9.12;51.31;93820.41;4222407;28;19920;-56
2023/03/08 00:05:03;;;;;;;;;;;;;;;9.08;51.34;93818.28;4203457;28;19920;-56
2023/03/08 00:07:05;;;;;;;;;;;;;;;9.07;50.69;93819.28;4220883;28;20009;-58
2023/03/08 00:09:06;;;;;;;;;;;;;;;9.05;51.44;93818.63;4208726;28;20279;-58
2023/03/08 00:11:09;;;;;;;;;;;;;;;9.08;51.70;93820.88;4195851;28;20294;-60
2023/03/08 00:13:11;;;;;;;;;;;;;;;9.09;51.08;93814.69;4215519;28;19967;-57
2023/03/08 00:15:12;;;;;;;;;;;;;;;8.97;51.39;93815.09;4215319;28;19926;-57
2023/03/08 00:17:14;;;;;;;;;;;;;;;8.95;51.38;93819.66;4228716;28;19969;-58
2023/03/08 00:19:16;;;;;;;;;;;;;;;8.93;51.43;93811.19;4228025;28;19920;-57
2023/03/08 00:21:17;;;;;;;;;;;;;;;8.98;51.69;93814.09;4228445;28;19989;-58
2023/03/08 00:23:19;;;;;;;;;;;;;;;8.99;51.97;93815.72;4226970;28;19945;-58
2023/03/08 00:25:20;;;;;;;;;;;;;;;9.01;51.43;93823.38;4224826;28;20324;-58
2023/03/08 00:27:22;;;;;;;;;;;;;;;9.01;51.46;93826.81;4218779;28;19920;-61
2023/03/08 00:29:23;;;;;;;;;;;;;;;8.89;51.20;93820.34;4216865;28;20480;-60
2023/03/08 00:31:25;;;;;;;;;;;;;;;8.74;51.85;93829.88;4224619;28;20388;-57
2023/03/08 00:33:27;;;;;;;;;;;;;;;8.72;51.96;93826.63;4211482;28;19949;-58
2023/03/08 00:35:28;;;;;;;;;;;;;;;8.75;52.20;93826.25;4220369;28;19959;-58
2023/03/08 00:37:30;;;;;;;;;;;;;;;8.65;52.67;93809.97;4218101;28;19924;-60
2023/03/08 00:39:32;;;;;;;;;;;;;;;8.57;53.00;93816.06;4211134;28;20042;-61
2023/03/08 00:41:33;;;;;;;;;;;;;;;8.57;52.50;93816.88;4212102;28;20367;-59
2023/03/08 00:43:35;;;;;;;;;;;;;;;8.37;53.14;93797.34;4214903;28;19919;-58
2023/03/08 00:45:36;;;;;;;;;;;;;;;8.32;53.13;93813.47;4212266;28;19920;-57
2023/03/08 00:47:38;;;;;;;;;;;;;;;8.35;53.46;93807.94;4194397;28;19971;-57
2023/03/08 00:49:39;;;;;;;;;;;;;;;8.44;53.32;93821.00;4211995;28;19970;-53
2023/03/08 00:51:41;;;;;;;;;;;;;;;8.55;53.15;93807.56;4209559;28;20015;-53
2023/03/08 00:53:42;;;;;;;;;;;;;;;8.42;53.78;93808.09;4227889;28;19976;-55
2023/03/08 00:55:48;;;;;;;;;;;;;;;8.46;52.69;93817.22;4227611;28;19969;-56
2023/03/08 00:57:49;;;;;;;;;;;;;;;8.52;52.91;93808.72;4212059;28;19920;-53
2023/03/08 00:59:51;;;;;;;;;;;;;;;8.46;53.47;93813.81;4220630;28;19951;-55
2023/03/08 01:01:52;;;;;;;;;;;;;;;8.50;53.27;93820.34;4200196;28;19920;-51
2023/03/08 01:03:54;;;;;;;;;;;;;;;8.46;52.72;93808.59;4197858;28;20285;-53
2023/03/08 01:05:55;;;;;;;;;;;;;;;8.11;54.39;93816.63;4203600;28;20330;-50
2023/03/08 01:07:57;;;;;;;;;;;;;;;8.12;54.66;93822.66;4225939;28;20255;-50
2023/03/08 01:09:59;;;;;;;;;;;;;;;8.16;54.81;93826.56;4215101;28;19977;-52
2023/03/08 01:12:00;;;;;;;;;;;;;;;8.15;54.93;93817.94;4212867;28;19931;-54
2023/03/08 01:14:02;;;;;;;;;;;;;;;7.79;55.09;93817.47;4213037;28;20019;-53
2023/03/08 01:16:04;;;;;;;;;;;;;;;7.87;55.73;93819.25;4215510;28;20355;-53
2023/03/08 01:18:05;;;;;;;;;;;;;;;7.99;55.15;93823.16;4224528;28;19927;-53
2023/03/08 01:20:07;;;;;;;;;;;;;;;8.14;54.93;93823.31;4221984;28;19998;-52
2023/03/08 01:22:09;;;;;;;;;;;;;;;8.21;54.37;93822.47;4210426;28;19947;-53
2023/03/08 01:24:10;;;;;;;;;;;;;;;7.92;55.18;93817.78;4215622;28;19962;-53
2023/03/08 01:26:15;;;;;;;;;;;;;;;7.93;55.37;93823.81;4226697;28;19927;-56
2023/03/08 01:28:17;;;;;;;;;;;;;;;7.99;55.52;93829.19;4228554;28;19926;-54
2023/03/08 01:30:18;;;;;;;;;;;;;;;8.05;54.73;93819.91;4210765;28;19920;-54
2023/03/08 01:32:20;;;;;;;;;;;;;;;8.17;55.12;93828.19;4226736;28;19923;-53
2023/03/08 01:34:21;;;;;;;;;;;;;;;8.24;54.17;93826.56;4226469;28;19984;-55
2023/03/08 01:36:24;;;;;;;;;;;;;;;8.30;54.54;93825.91;4220980;28;20018;-52
2023/03/08 01:38:25;;;;;;;;;;;;;;;8.37;54.01;93826.84;4217820;28;19927;-54
2023/03/08 01:40:27;;;;;;;;;;;;;;;8.44;53.67;93821.81;4216547;28;19923;-53
2023/03/08 01:42:28;;;;;;;;;;;;;;;8.46;53.66;93819.03;4228946;28;19966;-50
2023/03/08 01:44:47;;;;;;;;;;;;;;;8.45;53.73;93815.59;4218535;28;20301;-51
2023/03/08 01:46:48;;;;;;;;;;;;;;;8.48;53.85;93820.50;4189225;28;20338;-50
2023/03/08 01:49:09;;;;;;;;;;;;;;;8.47;54.26;93826.69;4214140;28;19924;-51
2023/03/08 01:51:11;;;;;;;;;;;;;;;8.32;54.76;93828.31;4224999;28;19977;-51
2023/03/08 01:53:12;;;;;;;;;;;;;;;8.08;55.70;93826.56;4226535;28;19977;-55
2023/03/08 01:55:14;;;;;;;;;;;;;;;7.95;55.68;93827.06;4221027;28;19977;-57
2023/03/08 01:57:25;;;;;;;;;;;;;;;7.71;56.26;93825.28;4201893;28;20402;-61
2023/03/08 01:59:26;;;;;;;;;;;;;;;7.68;56.60;93836.03;4227880;28;19919;-60
2023/03/08 02:01:28;;;;;;;;;;;;;;;7.75;56.31;93837.84;4224534;28;19924;-59
2023/03/08 02:03:29;;;;;;;;;;;;;;;7.68;56.42;93826.44;4204981;28;19920;-58
2023/03/08 02:05:31;;;;;;;;;;;;;;;7.42;56.75;93823.16;4223165;28;19928;-60
2023/03/08 02:07:32;;;;;;;;;;;;;;;7.42;57.33;93825.75;4208505;28;19930;-59
2023/03/08 02:09:34;;;;;;;;;;;;;;;7.48;57.14;93822.50;4225490;28;19923;-59
2023/03/08 02:11:36;;;;;;;;;;;;;;;7.63;57.22;93826.09;4222669;28;19969;-60
2023/03/08 02:13:38;;;;;;;;;;;;;;;7.63;56.89;93823.47;4211470;28;19927;-60
2023/03/08 02:15:40;;;;;;;;;;;;;;;7.66;56.56;93830.16;4228137;28;20436;-57
2023/03/08 02:17:41;;;;;;;;;;;;;;;7.65;56.89;93833.75;4219743;28;19927;-56
2023/03/08 02:19:53;;;;;;;;;;;;;;;7.61;56.63;93815.00;4210722;28;19923;-56
2023/03/08 02:21:54;;;;;;;;;;;;;;;7.65;56.42;93825.94;4186351;28;19950;-57
2023/03/08 02:24:01;;;;;;;;;;;;;;;7.63;56.93;93836.53;4207871;28;19927;-57
2023/03/08 02:26:03;;;;;;;;;;;;;;;7.30;57.59;93804.41;4203808;28;19921;-59
2023/03/08 02:28:05;;;;;;;;;;;;;;;7.40;57.33;93823.31;4209577;28;19920;-58
2023/03/08 02:30:07;;;;;;;;;;;;;;;7.39;57.31;93843.34;4212010;28;19966;-58
2023/03/08 02:32:09;;;;;;;;;;;;;;;7.48;56.88;93835.53;4213416;28;19943;-58
2023/03/08 02:34:10;;;;;;;;;;;;;;;7.26;57.43;93834.38;4213363;28;19924;-59
2023/03/08 02:36:12;;;;;;;;;;;;;;;7.21;58.15;93828.84;4188051;28;19974;-58
2023/03/08 02:38:16;;;;;;;;;;;;;;;7.32;57.87;93838.94;4193905;28;19971;-54
2023/03/08 02:40:18;;;;;;;;;;;;;;;7.41;57.45;93834.56;4187113;28;19944;-58
2023/03/08 02:42:19;;;;;;;;;;;;;;;7.45;57.60;93831.47;4191237;28;20348;-58
2023/03/08 02:44:21;;;;;;;;;;;;;;;7.50;57.32;93838.78;4185994;28;19925;-58
2023/03/08 02:46:22;;;;;;;;;;;;;;;7.06;58.50;93836.44;4183063;28;19960;-57
2023/03/08 02:48:24;;;;;;;;;;;;;;;7.07;58.79;93851.09;4188078;28;19943;-56
2023/03/08 02:50:25;;;;;;;;;;;;;;;7.10;58.56;93845.56;4187177;28;20393;-54
2023/03/08 02:52:27;;;;;;;;;;;;;;;6.79;59.33;93847.91;4179651;28;19920;-55
2023/03/08 02:54:28;;;;;;;;;;;;;;;6.79;59.64;93851.31;4180677;28;20282;-56
2023/03/08 02:56:30;;;;;;;;;;;;;;;6.94;59.35;93860.16;4199541;28;19920;-57
2023/03/08 02:58:31;;;;;;;;;;;;;;;6.91;58.45;93855.28;4191048;28;19920;-55
2023/03/08 03:00:33;;;;;;;;;;;;;;;6.79;58.91;93843.50;4179821;28;19924;-58
2023/03/08 03:02:34;;;;;;;;;;;;;;;6.79;59.30;93853.91;4207194;28;19920;-55
2023/03/08 03:04:36;;;;;;;;;;;;;;;6.89;59.33;93856.41;4201591;28;19920;-56
2023/03/08 03:06:37;;;;;;;;;;;;;;;7.03;58.76;93863.59;4212170;28;19920;-58
2023/03/08 03:08:39;;;;;;;;;;;;;;;7.13;58.66;93847.84;4213320;28;20266;-58
2023/03/08 03:10:41;;;;;;;;;;;;;;;7.01;58.22;93855.13;4210467;28;19943;-60
2023/03/08 03:12:45;;;;;;;;;;;;;;;7.06;58.47;93860.69;4192630;28;20378;-58
2023/03/08 03:14:46;;;;;;;;;;;;;;;7.11;58.75;93858.41;4195631;28;19928;-60
2023/03/08 03:16:48;;;;;;;;;;;;;;;7.16;58.39;93847.53;4196504;28;19928;-57
2023/03/08 03:18:50;;;;;;;;;;;;;;;7.18;57.96;93854.22;4197691;28;20330;-52
2023/03/08 03:20:52;;;;;;;;;;;;;;;7.22;57.86;93867.72;4208026;28;19977;-52
2023/03/08 03:22:53;;;;;;;;;;;;;;;7.27;57.91;93864.63;4195805;28;19920;-55
2023/03/08 03:24:55;;;;;;;;;;;;;;;7.33;58.04;93859.59;4186595;28;19920;-54
2023/03/08 03:26:56;;;;;;;;;;;;;;;7.39;57.78;93861.56;4186490;28;19927;-56
2023/03/08 03:28:58;;;;;;;;;;;;;;;7.46;57.26;93868.75;4192626;28;19920;-55
2023/03/08 03:30:59;;;;;;;;;;;;;;;7.53;57.40;93873.19;4198311;28;19920;-59
2023/03/08 03:33:01;;;;;;;;;;;;;;;7.52;57.69;93871.53;4211942;28;20523;-58
2023/03/08 03:35:02;;;;;;;;;;;;;;;7.53;57.45;93862.75;4200935;28;19924;-58
2023/03/08 03:37:04;;;;;;;;;;;;;;;7.55;57.66;93870.38;4207935;28;19920;-59
2023/03/08 03:39:06;;;;;;;;;;;;;;;7.54;57.41;93877.41;4196512;28;20295;-58
2023/03/08 03:41:08;;;;;;;;;;;;;;;7.56;57.35;93875.44;4203575;28;19982;-57
2023/03/08 03:43:09;;;;;;;;;;;;;;;7.47;57.38;93873.00;4213178;28;20293;-57
2023/03/08 03:45:11;;;;;;;;;;;;;;;7.36;57.71;93876.72;4212476;28;19924;-59
2023/03/08 03:47:13;;;;;;;;;;;;;;;7.34;58.15;93871.66;4208639;28;19943;-58
2023/03/08 03:49:14;;;;;;;;;;;;;;;7.35;57.93;93877.69;4203832;28;19920;-53
2023/03/08 03:51:17;;;;;;;;;;;;;;;7.10;58.33;93875.03;4217029;28;19920;-56
2023/03/08 03:53:18;;;;;;;;;;;;;;;7.08;59.02;93883.97;4217573;28;19964;-58
2023/03/08 03:55:20;;;;;;;;;;;;;;;7.15;58.90;93875.38;4221147;28;19920;-55
2023/03/08 03:57:22;;;;;;;;;;;;;;;7.27;58.27;93877.66;4219871;28;19962;-58
2023/03/08 03:59:24;;;;;;;;;;;;;;;7.34;58.81;93882.09;4221813;28;19920;-59
2023/03/08 04:01:28;;;;;;;;;;;;;;;7.33;58.54;93875.25;4220241;28;19920;-58
2023/03/08 04:03:29;;;;;;;;;;;;;;;7.32;58.30;93878.03;4221184;28;19927;-56
2023/03/08 04:05:31;;;;;;;;;;;;;;;7.39;58.11;93884.22;4223082;28;19976;-56
2023/03/08 04:07:32;;;;;;;;;;;;;;;7.38;58.41;93882.59;4216085;28;20357;-58
2023/03/08 04:09:34;;;;;;;;;;;;;;;7.34;58.60;93882.09;4216832;28;19924;-57
2023/03/08 04:11:37;;;;;;;;;;;;;;;7.37;58.64;93884.38;4205064;28;20065;-59
2023/03/08 04:13:38;;;;;;;;;;;;;;;7.42;58.57;93889.13;4204488;28;20347;-58
2023/03/08 04:15:40;;;;;;;;;;;;;;;7.45;58.68;93891.41;4232263;28;19964;-57
2023/03/08 04:17:42;;;;;;;;;;;;;;;7.47;58.13;93891.25;4219667;28;19963;-57
2023/03/08 04:19:43;;;;;;;;;;;;;;;7.47;58.17;93888.66;4221282;28;20381;-57
2023/03/08 04:21:45;;;;;;;;;;;;;;;7.47;57.86;93892.06;4221651;28;19955;-56
2023/03/08 04:23:47;;;;;;;;;;;;;;;7.43;58.16;93895.16;4231873;28;19923;-56
2023/03/08 04:25:48;;;;;;;;;;;;;;;7.43;58.60;93889.94;4217863;28;19977;-56
2023/03/08 04:27:50;;;;;;;;;;;;;;;7.42;58.46;93894.34;4211951;28;19921;-59
2023/03/08 04:29:51;;;;;;;;;;;;;;;7.42;58.42;93894.34;4207385;28;19968;-57
2023/03/08 04:31:57;;;;;;;;;;;;;;;7.45;58.38;93895.81;4209822;28;19920;-56
2023/03/08 04:33:58;;;;;;;;;;;;;;;7.47;58.24;93899.88;4226455;28;20369;-54
2023/03/08 04:35:59;;;;;;;;;;;;;;;7.47;57.89;93891.25;4225200;28;20007;-55
2023/03/08 04:38:01;;;;;;;;;;;;;;;7.49;57.93;93886.69;4227915;28;20359;-54
2023/03/08 04:40:06;;;;;;;;;;;;;;;7.51;58.16;93892.56;4221656;28;19920;-51
2023/03/08 04:42:07;;;;;;;;;;;;;;;7.54;57.85;93892.22;4224600;28;19975;-55
2023/03/08 04:44:09;;;;;;;;;;;;;;;7.52;57.71;93886.34;4202499;28;19927;-50
2023/03/08 04:46:10;;;;;;;;;;;;;;;7.51;57.86;93890.75;4213285;28;19920;-52
2023/03/08 04:48:12;;;;;;;;;;;;;;;7.49;58.13;93890.09;4211029;28;19930;-54
2023/03/08 04:50:13;;;;;;;;;;;;;;;7.51;58.00;93879.53;4215738;28;19983;-55
2023/03/08 04:52:15;;;;;;;;;;;;;;;7.51;58.12;93892.56;4213229;28;19963;-53
2023/03/08 04:54:16;;;;;;;;;;;;;;;7.49;57.63;93892.72;4192881;28;19967;-53
2023/03/08 04:56:18;;;;;;;;;;;;;;;7.52;57.63;93902.00;4227010;28;19973;-53
2023/03/08 04:58:20;;;;;;;;;;;;;;;7.41;57.34;93902.31;4214680;28;20308;-51
2023/03/08 05:00:21;;;;;;;;;;;;;;;7.01;59.06;93898.59;4214195;28;19928;-57
2023/03/08 05:02:23;;;;;;;;;;;;;;;6.86;59.48;93909.59;4201449;28;19921;-54
2023/03/08 05:04:25;;;;;;;;;;;;;;;6.85;59.91;93912.34;4214178;28;20264;-52
2023/03/08 05:06:26;;;;;;;;;;;;;;;6.95;59.91;93913.88;4206074;28;19923;-55
2023/03/08 05:08:28;;;;;;;;;;;;;;;7.14;59.04;93915.41;4213801;28;19921;-56
2023/03/08 05:10:32;;;;;;;;;;;;;;;7.24;59.03;93920.47;4212933;28;19926;-54
2023/03/08 05:12:34;;;;;;;;;;;;;;;7.30;58.84;93919.84;4224571;28;19929;-56
2023/03/08 05:14:36;;;;;;;;;;;;;;;7.35;59.10;93930.59;4214818;28;19931;-53
2023/03/08 05:16:37;;;;;;;;;;;;;;;7.43;58.33;93926.41;4227222;28;19985;-53
2023/03/08 05:18:39;;;;;;;;;;;;;;;7.47;57.96;93928.53;4207164;28;20003;-59
2023/03/08 05:20:40;;;;;;;;;;;;;;;7.57;58.29;93934.44;4204398;28;20007;-57
2023/03/08 05:22:42;;;;;;;;;;;;;;;7.65;57.96;93933.63;4213239;28;19924;-57
2023/03/08 05:24:58;;;;;;;;;;;;;;;7.66;57.77;93939.66;4204771;28;19964;-57
2023/03/08 05:27:00;;;;;;;;;;;;;;;7.68;57.85;93945.53;4197959;28;19921;-60
2023/03/08 05:29:02;;;;;;;;;;;;;;;7.70;57.45;93944.41;4223337;28;19945;-60
2023/03/08 05:31:11;;;;;;;;;;;;;;;7.74;57.46;93944.88;4224654;28;19927;-58
2023/03/08 05:33:13;;;;;;;;;;;;;;;7.75;57.43;93954.34;4220897;28;19950;-61
2023/03/08 05:35:15;;;;;;;;;;;;;;;7.77;57.82;93955.81;4228685;28;19973;-61
2023/03/08 05:37:16;;;;;;;;;;;;;;;7.78;57.50;93956.63;4229636;28;20531;-60
2023/03/08 05:39:17;;;;;;;;;;;;;;;7.70;58.19;93964.44;4230030;28;19919;-58
2023/03/08 05:41:19;;;;;;;;;;;;;;;7.68;57.51;93964.59;4230252;28;19919;-58
2023/03/08 05:43:21;;;;;;;;;;;;;;;7.66;57.95;93965.72;4229047;28;20349;-57
2023/03/08 05:45:22;;;;;;;;;;;;;;;7.59;58.35;93961.16;4215244;28;19924;-59
2023/03/08 05:47:24;;;;;;;;;;;;;;;7.58;58.34;93967.34;4219495;28;19935;-57
2023/03/08 05:49:25;;;;;;;;;;;;;;;7.53;58.28;93963.59;4215415;28;19920;-58
2023/03/08 05:51:27;;;;;;;;;;;;;;;7.55;58.77;93965.06;4209403;28;19969;-57
2023/03/08 05:53:28;;;;;;;;;;;;;;;7.64;58.31;93968.50;4209260;28;19926;-56
2023/03/08 05:55:30;;;;;;;;;;;;;;;7.71;58.44;93964.28;4212487;28;20037;-60
2023/03/08 05:57:31;;;;;;;;;;;;;;;7.69;57.91;93961.00;4200667;28;19920;-58
2023/03/08 05:59:33;;;;;;;;;;;;;;;7.73;58.01;93971.94;4212571;28;20017;-60
2023/03/08 06:01:34;;;;;;;;;;;;;;;7.70;58.62;93969.63;4218421;28;19965;-58
2023/03/08 06:03:36;;;;;;;;;;;;;;;7.56;58.77;93974.50;4219285;28;19949;-52
2023/03/08 06:05:37;;;;;;;;;;;;;;;7.51;59.21;93981.19;4224087;28;20273;-55
2023/03/08 06:07:40;;;;;;;;;;;;;;;7.63;59.01;93982.50;4226159;28;20007;-59
2023/03/08 06:09:41;;;;;;;;;;;;;;;7.62;58.94;93982.69;4205805;28;19928;-61
2023/03/08 06:11:43;;;;;;;;;;;;;;;7.69;58.96;93984.47;4223843;28;19931;-59
2023/03/08 06:13:44;;;;;;;;;;;;;;;7.74;59.10;93982.22;4222402;28;19924;-59
2023/03/08 06:15:46;;;;;;;;;;;;;;;7.85;59.02;93986.31;4225123;28;19924;-60
2023/03/08 06:17:50;;;;;;;;;;;;;;;8.03;58.88;93986.19;4225283;28;20023;-59
2023/03/08 06:19:52;;;;;;;;;;;;;;;8.24;57.73;93996.16;4215068;28;20298;-60
2023/03/08 06:21:53;;;;;;;;;;;;;;;8.36;57.50;93996.63;4206474;28;19976;-58
2023/03/08 06:23:54;;;;;;;;;;;;;;;8.53;57.28;93990.47;4209974;28;19920;-60
2023/03/08 06:25:56;;;;;;;;;;;;;;;8.72;56.86;93997.16;4214707;28;19919;-61
2023/03/08 06:27:58;;;;;;;;;;;;;;;8.80;55.85;93998.94;4210219;28;19923;-59
2023/03/08 06:29:59;;;;;;;;;;;;;;;8.89;56.17;94002.38;4211418;28;20019;-60
2023/03/08 06:32:01;;;;;;;;;;;;;;;8.96;55.23;93996.28;4213709;28;20309;-60
2023/03/08 06:34:02;;;;;;;;;;;;;;;9.05;55.40;93997.09;4216163;28;19927;-59
2023/03/08 06:36:06;;;;;;;;;;;;;;;9.17;55.22;93995.75;4203951;28;19920;-60
2023/03/08 06:38:07;;;;;;;;;;;;;;;9.20;55.28;94005.88;4201058;28;19920;-59
2023/03/08 06:40:10;;;;;;;;;;;;;;;9.22;54.92;94009.13;4220276;28;20255;-61
2023/03/08 06:42:12;;;;;;;;;;;;;;;9.32;54.21;94011.56;4219373;28;19919;-57
2023/03/08 06:44:13;;;;;;;;;;;;;;;9.31;54.45;94019.56;4220404;28;19924;-58
2023/03/08 06:46:16;;;;;;;;;;;;;;;9.30;53.87;94016.16;4217022;28;20366;-60
2023/03/08 06:48:17;;;;;;;;;;;;;;;9.33;53.90;94022.84;4211955;28;19939;-60
2023/03/08 06:50:19;;;;;;;;;;;;;;;9.35;54.26;94024.28;4189726;28;20426;-58
2023/03/08 06:52:20;;;;;;;;;;;;;;;9.47;53.80;94018.72;4220536;28;20419;-60
2023/03/08 06:54:23;;;;;;;;;;;;;;;9.50;53.62;94032.25;4213428;28;19946;-59
2023/03/08 06:56:26;;;;;;;;;;;;;;;9.61;53.84;94031.06;4201486;28;20321;-58
2023/03/08 06:58:28;;;;;;;;;;;;;;;9.66;53.35;94036.63;4228264;28;19927;-60
2023/03/08 07:00:30;;;;;;;;;;;;;;;9.77;53.35;94044.09;4219333;28;19963;-59
2023/03/08 07:02:31;;;;;;;;;;;;;;;9.91;53.32;94047.78;4223186;28;20100;-56
2023/03/08 07:04:33;;;;;;;;;;;;;;;9.98;52.43;94040.91;4214606;28;19920;-57
2023/03/08 07:06:34;;;;;;;;;;;;;;;10.00;52.84;94043.31;4219159;28;19920;-57
2023/03/08 07:08:36;;;;;;;;;;;;;;;9.88;52.87;94045.50;4216357;28;20357;-61
2023/03/08 07:10:38;;;;;;;;;;;;;;;9.80;53.75;94050.78;4211806;28;19920;-60
2023/03/08 07:12:42;;;;;;;;;;;;;;;9.83;53.46;94056.50;4204510;28;19928;-61
2023/03/08 07:14:43;;;;;;;;;;;;;;;10.00;52.92;94052.00;4206443;28;19967;-60
2023/03/08 07:16:45;;;;;;;;;;;;;;;10.07;52.64;94052.13;4215263;28;19920;-58
2023/03/08 07:18:47;;;;;;;;;;;;;;;10.15;52.40;94056.50;4212733;28;19924;-61
2023/03/08 07:20:52;;;;;;;;;;;;;;;10.20;52.25;94049.75;4211175;28;19924;-62
2023/03/08 07:22:54;;;;;;;;;;;;;;;10.25;52.29;94052.66;4200094;28;19927;-61
2023/03/08 07:24:55;;;;;;;;;;;;;;;10.29;52.02;94055.78;4208100;28;19920;-58
2023/03/08 07:26:57;;;;;;;;;;;;;;;10.29;51.79;94049.72;4206895;28;19962;-58
2023/03/08 07:28:58;;;;;;;;;;;;;;;10.18;51.95;94045.69;4214054;28;19947;-60
2023/03/08 07:31:00;;;;;;;;;;;;;;;10.21;52.13;94048.75;4213254;28;19973;-60
2023/03/08 07:33:02;;;;;;;;;;;;;;;10.38;52.21;94057.38;4207061;28;19970;-60
2023/03/08 07:35:04;;;;;;;;;;;;;;;10.52;52.35;94055.81;4196981;28;19929;-60
2023/03/08 07:37:09;;;;;;;;;;;;;;;10.54;51.49;94053.84;4210345;28;19987;-59
2023/03/08 07:39:11;;;;;;;;;;;;;;;10.68;51.74;94051.44;4201367;28;19920;-58
2023/03/08 07:41:12;;;;;;;;;;;;;;;10.68;51.57;94048.84;4213140;28;20286;-61
2023/03/08 07:43:14;;;;;;;;;;;;;;;10.75;51.60;94052.38;4203372;28;20405;-60
2023/03/08 07:45:15;;;;;;;;;;;;;;;10.84;51.36;94048.69;4209313;28;19959;-55
2023/03/08 07:47:17;;;;;;;;;;;;;;;10.91;50.97;94052.25;4232598;28;19923;-59
2023/03/08 07:49:18;;;;;;;;;;;;;;;10.95;51.12;94048.28;4221348;28;19920;-60
2023/03/08 07:51:20;;;;;;;;;;;;;;;10.91;50.93;94049.63;4212597;28;19967;-61
2023/03/08 07:53:21;;;;;;;;;;;;;;;10.94;50.93;94058.94;4220912;28;19920;-58
2023/03/08 07:55:24;;;;;;;;;;;;;;;10.75;51.14;94058.41;4224747;28;19973;-61
2023/03/08 07:57:25;;;;;;;;;;;;;;;10.77;51.46;94059.06;4228389;28;19942;-60
2023/03/08 07:59:27;;;;;;;;;;;;;;;10.89;51.38;94062.09;4218465;28;19927;-59
2023/03/08 08:01:28;;;;;;;;;;;;;;;11.00;50.96;94056.41;4227121;28;19959;-58
2023/03/08 08:03:30;;;;;;;;;;;;;;;11.14;50.85;94057.47;4224935;28;19920;-63
2023/03/08 08:05:33;;;;;;;;;;;;;;;11.28;50.56;94058.47;4230628;28;19920;-59
2023/03/08 08:07:35;;;;;;;;;;;;;;;11.35;49.96;94055.94;4229166;28;19966;-58
2023/03/08 08:09:36;;;;;;;;;;;;;;;11.41;49.86;94055.22;4215825;28;19927;-59
2023/03/08 08:11:38;;;;;;;;;;;;;;;11.36;49.85;94053.16;4213106;28;19925;-63
2023/03/08 08:13:39;;;;;;;;;;;;;;;11.37;50.02;94052.13;4220786;28;20598;-59
2023/03/08 08:15:41;;;;;;;;;;;;;;;11.42;50.13;94056.84;4207630;28;19924;-59
2023/03/08 08:17:42;;;;;;;;;;;;;;;11.44;50.01;94062.72;4202502;28;20041;-60
2023/03/08 08:19:44;;;;;;;;;;;;;;;11.42;49.83;94065.53;4227450;28;19931;-59
2023/03/08 08:21:45;;;;;;;;;;;;;;;11.48;49.54;94064.00;4219726;28;19919;-60
2023/03/08 08:23:47;;;;;;;;;;;;;;;11.52;49.65;94064.47;4226733;28;19919;-61
2023/03/08 08:25:49;;;;;;;;;;;;;;;11.51;49.83;94073.31;4228924;28;20271;-62
2023/03/08 08:27:50;;;;;;;;;;;;;;;11.58;49.81;94069.78;4231656;28;19965;-61
2023/03/08 08:29:52;;;;;;;;;;;;;;;11.67;49.41;94073.13;4231328;28;19919;-60
2023/03/08 08:31:55;;;;;;;;;;;;;;;11.67;48.94;94078.38;4224432;28;19943;-59
2023/03/08 08:33:57;;;;;;;;;;;;;;;11.89;48.95;94074.06;4228653;28;19919;-60
2023/03/08 08:35:58;;;;;;;;;;;;;;;12.22;48.21;94063.19;4225267;28;19924;-61
2023/03/08 08:38:00;;;;;;;;;;;;;;;12.51;47.53;94064.88;4230144;28;19919;-61
2023/03/08 08:40:02;;;;;;;;;;;;;;;12.67;46.40;94064.66;4200125;28;19921;-61
2023/03/08 08:42:04;;;;;;;;;;;;;;;12.89;46.61;94067.28;4225879;28;20338;-61
2023/03/08 08:44:06;;;;;;;;;;;;;;;12.94;46.00;94059.63;4227903;28;19920;-59
2023/03/08 08:46:07;;;;;;;;;;;;;;;13.04;45.88;94065.41;4213348;28;19923;-61
2023/03/08 08:48:09;;;;;;;;;;;;;;;13.09;45.68;94057.75;4223025;28;19920;-55
2023/03/08 08:50:10;;;;;;;;;;;;;;;13.24;45.56;94059.47;4221868;28;19968;-60
2023/03/08 08:52:14;;;;;;;;;;;;;;;13.23;45.86;94057.88;4206014;28;20001;-61
2023/03/08 08:54:16;;;;;;;;;;;;;;;13.09;45.82;94055.09;4229224;28;19919;-61
2023/03/08 08:56:18;;;;;;;;;;;;;;;12.98;45.50;94058.25;4193486;28;19924;-60
2023/03/08 08:58:28;;;;;;;;;;;;;;;12.57;46.50;94065.97;4197669;28;19927;-60
2023/03/08 09:00:29;;;;;;;;;;;;;;;11.52;48.76;94067.06;4223786;28;19919;-58
2023/03/08 09:02:31;;;;;;;;;;;;;;;11.30;49.31;94064.34;4229409;28;19920;-58
2023/03/08 09:04:33;;;;;;;;;;;;;;;11.31;49.37;94065.97;4201166;28;19924;-57
2023/03/08 09:06:34;;;;;;;;;;;;;;;11.24;49.86;94067.69;4225059;28;20030;-59
2023/03/08 09:08:36;;;;;;;;;;;;;;;11.42;49.77;94070.78;4213738;28;20021;-61
2023/03/08 09:10:38;;;;;;;;;;;;;;;11.52;49.39;94064.47;4213954;28;20423;-62
2023/03/08 09:12:41;;;;;;;;;;;;;;;11.22;49.99;94067.03;4206856;28;19962;-62
2023/03/08 09:14:42;;;;;;;;;;;;;;;10.97;50.62;94069.06;4225765;28;19927;-59
2023/03/08 09:16:44;;;;;;;;;;;;;;;11.15;50.48;94063.50;4208486;28;19936;-59
2023/03/08 09:18:46;;;;;;;;;;;;;;;11.12;50.43;94066.47;4206669;28;19931;-61
2023/03/08 09:20:47;;;;;;;;;;;;;;;11.09;50.41;94064.22;4207841;28;20009;-60
2023/03/08 09:22:48;;;;;;;;;;;;;;;11.22;50.38;94056.56;4229361;28;19920;-62
2023/03/08 09:24:50;;;;;;;;;;;;;;;11.22;50.22;94057.34;4230955;28;19967;-58
2023/03/08 09:26:52;;;;;;;;;;;;;;;11.35;49.97;94051.50;4231215;28;19965;-61
2023/03/08 09:28:53;;;;;;;;;;;;;;;11.55;49.87;94054.44;4231438;28;20400;-63
2023/03/08 09:30:55;;;;;;;;;;;;;;;11.64;49.46;94049.91;4220428;28;19923;-60
2023/03/08 09:32:56;;;;;;;;;;;;;;;11.83;49.25;94046.72;4224196;28;20011;-61
2023/03/08 09:34:58;;;;;;;;;;;;;;;12.02;48.26;94047.16;4219279;28;19923;-62
2023/03/08 09:36:59;;;;;;;;;;;;;;;11.85;48.71;94052.59;4225652;28;20339;-61
2023/03/08 09:39:02;;;;;;;;;;;;;;;11.90;48.53;94038.16;4226997;28;19950;-60
2023/03/08 09:41:20;;;;;;;;;;;;;;;11.99;48.45;94039.66;4209005;28;19921;-61
2023/03/08 09:43:26;;;;;;;;;;;;;;;12.04;48.31;94037.28;4198535;28;19920;-61
2023/03/08 09:45:27;;;;;;;;;;;;;;;12.15;47.80;94039.44;4194370;28;19950;-61
2023/03/08 09:47:35;;;;;;;;;;;;;;;12.34;47.57;94040.66;4215650;28;19927;-59
2023/03/08 09:49:37;;;;;;;;;;;;;;;12.57;47.11;94032.63;4214246;28;19920;-58
2023/03/08 09:51:39;;;;;;;;;;;;;;;12.95;46.44;94034.16;4212008;28;20424;-59
2023/03/08 09:53:42;;;;;;;;;;;;;;;12.76;46.36;94033.00;4213013;28;19935;-59
2023/03/08 09:55:46;;;;;;;;;;;;;;;12.78;46.49;94023.13;4201068;28;20421;-57
2023/03/08 09:57:51;;;;;;;;;;;;;;;13.07;46.54;94024.75;4213366;28;19920;-54
2023/03/08 09:59:57;;;;;;;;;;;;;;;13.40;46.10;94021.56;4208313;28;19928;-52
2023/03/08 10:02:01;;;;;;;;;;;;;;;13.69;45.13;94016.06;4206890;28;19973;-52
2023/03/08 10:04:03;;;;;;;;;;;;;;;13.23;45.25;94021.03;4182207;28;20406;-53
2023/03/08 10:06:23;;;;;;;;;;;;;;;13.42;45.37;94020.41;4198510;28;19958;-55
2023/03/08 10:08:25;;;;;;;;;;;;;;;13.44;45.56;94018.38;4205279;28;20308;-53
2023/03/08 10:10:45;;;;;;;;;;;;;;;13.68;44.50;94021.53;4214109;28;19928;-59
2023/03/08 10:12:52;;;;;;;;;;;;;;;13.73;44.76;94005.97;4220285;28;19920;-58
2023/03/08 10:15:00;;;;;;;;;;;;;;;13.70;44.79;94015.09;4216675;28;19920;-57
2023/03/08 10:17:03;;;;;;;;;;;;;;;13.34;45.55;94011.84;4213326;28;19927;-54
2023/03/08 10:19:20;;;;;;;;;;;;;;;12.90;46.66;94005.81;4230474;28;20400;-56
2023/03/08 10:21:22;;;;;;;;;;;;;;;13.00;46.74;94008.13;4214712;28;19947;-56
2023/03/08 10:23:27;;;;;;;;;;;;;;;13.24;46.03;94005.06;4196273;28;19982;-57
2023/03/08 10:25:32;;;;;;;;;;;;;;;13.59;45.73;94004.28;4208456;28;19920;-55
2023/03/08 10:27:34;;;;;;;;;;;;;;;13.74;44.83;94004.97;4213152;28;19999;-54
2023/03/08 10:29:35;;;;;;;;;;;;;;;13.98;44.68;94002.84;4209735;28;19920;-55
2023/03/08 10:31:37;;;;;;;;;;;;;;;14.08;43.78;94006.72;4197758;28;20057;-56
2023/03/08 10:33:39;;;;;;;;;;;;;;;13.69;44.68;94010.00;4201028;28;19920;-54
2023/03/08 10:35:54;;;;;;;;;;;;;;;13.30;45.61;94006.94;4212467;28;19923;-55
2023/03/08 10:37:55;;;;;;;;;;;;;;;13.34;45.50;94003.94;4204651;28;19924;-55
2023/03/08 10:40:02;;;;;;;;;;;;;;;13.27;45.56;93996.78;4214569;28;19969;-57
2023/03/08 10:42:12;;;;;;;;;;;;;;;13.50;45.63;93995.72;4203599;28;20414;-58